sensor_id;sensor_type;location;lat;lon;timestamp;P1;durP1;ratioP1;P2;durP2;ratioP2
80163;SDS011;70071;55.130;61.268;2023-06-22T00:00:55;5.93;;;4.18;;
80163;SDS011;70071;55.130;61.268;2023-06-22T00:03:22;7.05;;;4.20;;
80163;SDS011;70071;55.130;61.268;2023-06-22T00:05:49;5.93;;;4.07;;
80163;SDS011;70071;55.130;61.268;2023-06-22T00:10:42;6.70;;;3.88;;
80163;SDS011;70071;55.130;61.268;2023-06-22T00:13:09;10.32;;;4.20;;
80163;SDS011;70071;55.130;61.268;2023-06-22T00:18:02;8.02;;;4.50;;
80163;SDS011;70071;55.130;61.268;2023-06-22T00:20:28;7.20;;;3.70;;
80163;SDS011;70071;55.130;61.268;2023-06-22T00:22:56;7.28;;;4.38;;
80163;SDS011;70071;55.130;61.268;2023-06-22T00:25:23;5.78;;;3.30;;
80163;SDS011;70071;55.130;61.268;2023-06-22T00:27:49;6.63;;;4.45;;
80163;SDS011;70071;55.130;61.268;2023-06-22T00:32:42;6.07;;;3.70;;
80163;SDS011;70071;55.130;61.268;2023-06-22T00:37:35;6.03;;;3.50;;
80163;SDS011;70071;55.130;61.268;2023-06-22T00:42:29;6.35;;;3.92;;
80163;SDS011;70071;55.130;61.268;2023-06-22T00:44:55;6.43;;;3.40;;
80163;SDS011;70071;55.130;61.268;2023-06-22T00:47:21;6.60;;;4.13;;
80163;SDS011;70071;55.130;61.268;2023-06-22T00:49:48;5.57;;;3.90;;
80163;SDS011;70071;55.130;61.268;2023-06-22T00:52:19;6.97;;;3.97;;
80163;SDS011;70071;55.130;61.268;2023-06-22T00:54:47;6.55;;;4.10;;
80163;SDS011;70071;55.130;61.268;2023-06-22T00:57:14;7.93;;;4.45;;
80163;SDS011;70071;55.130;61.268;2023-06-22T00:59:43;9.13;;;4.55;;
80163;SDS011;70071;55.130;61.268;2023-06-22T01:02:13;8.65;;;4.30;;
80163;SDS011;70071;55.130;61.268;2023-06-22T01:04:40;10.70;;;4.70;;
80163;SDS011;70071;55.130;61.268;2023-06-22T01:10:18;7.65;;;4.20;;
80163;SDS011;70071;55.130;61.268;2023-06-22T01:12:55;5.43;;;3.25;;
80163;SDS011;70071;55.130;61.268;2023-06-22T01:18:15;5.93;;;3.95;;
80163;SDS011;70071;55.130;61.268;2023-06-22T01:20:44;6.03;;;3.58;;
80163;SDS011;70071;55.130;61.268;2023-06-22T01:25:46;6.32;;;4.13;;
80163;SDS011;70071;55.130;61.268;2023-06-22T01:30:51;5.43;;;3.67;;
80163;SDS011;70071;55.130;61.268;2023-06-22T01:33:28;6.35;;;3.72;;
80163;SDS011;70071;55.130;61.268;2023-06-22T01:35:57;6.05;;;4.05;;
80163;SDS011;70071;55.130;61.268;2023-06-22T01:40:50;6.95;;;4.00;;
80163;SDS011;70071;55.130;61.268;2023-06-22T01:45:42;6.75;;;3.60;;
80163;SDS011;70071;55.130;61.268;2023-06-22T01:48:10;5.88;;;3.78;;
80163;SDS011;70071;55.130;61.268;2023-06-22T01:50:36;5.38;;;3.65;;
80163;SDS011;70071;55.130;61.268;2023-06-22T01:53:02;4.72;;;2.63;;
80163;SDS011;70071;55.130;61.268;2023-06-22T01:55:28;6.47;;;3.97;;
80163;SDS011;70071;55.130;61.268;2023-06-22T01:57:55;7.45;;;4.07;;
80163;SDS011;70071;55.130;61.268;2023-06-22T02:00:22;7.03;;;4.10;;
80163;SDS011;70071;55.130;61.268;2023-06-22T02:02:54;4.97;;;3.40;;
80163;SDS011;70071;55.130;61.268;2023-06-22T02:05:35;5.28;;;3.33;;
80163;SDS011;70071;55.130;61.268;2023-06-22T02:08:09;5.63;;;3.75;;
80163;SDS011;70071;55.130;61.268;2023-06-22T02:10:37;5.10;;;3.55;;
80163;SDS011;70071;55.130;61.268;2023-06-22T02:13:07;6.05;;;4.25;;
80163;SDS011;70071;55.130;61.268;2023-06-22T02:15:35;5.90;;;3.42;;
80163;SDS011;70071;55.130;61.268;2023-06-22T02:18:02;5.55;;;3.10;;
80163;SDS011;70071;55.130;61.268;2023-06-22T02:20:48;4.30;;;2.50;;
80163;SDS011;70071;55.130;61.268;2023-06-22T02:23:14;5.20;;;3.38;;
80163;SDS011;70071;55.130;61.268;2023-06-22T02:25:39;5.15;;;2.58;;
80163;SDS011;70071;55.130;61.268;2023-06-22T02:28:09;5.55;;;2.95;;
80163;SDS011;70071;55.130;61.268;2023-06-22T02:30:35;3.95;;;2.50;;
80163;SDS011;70071;55.130;61.268;2023-06-22T02:33:01;4.20;;;2.60;;
80163;SDS011;70071;55.130;61.268;2023-06-22T02:35:30;5.75;;;2.95;;
80163;SDS011;70071;55.130;61.268;2023-06-22T02:38:01;5.38;;;3.10;;
80163;SDS011;70071;55.130;61.268;2023-06-22T02:40:28;7.50;;;3.30;;
80163;SDS011;70071;55.130;61.268;2023-06-22T02:42:55;5.80;;;3.75;;
80163;SDS011;70071;55.130;61.268;2023-06-22T02:45:23;8.23;;;2.83;;
80163;SDS011;70071;55.130;61.268;2023-06-22T02:47:49;6.13;;;3.85;;
80163;SDS011;70071;55.130;61.268;2023-06-22T02:50:15;5.43;;;3.20;;
80163;SDS011;70071;55.130;61.268;2023-06-22T02:52:41;5.82;;;3.53;;
80163;SDS011;70071;55.130;61.268;2023-06-22T02:55:07;4.72;;;3.00;;
80163;SDS011;70071;55.130;61.268;2023-06-22T02:57:33;4.55;;;2.85;;
80163;SDS011;70071;55.130;61.268;2023-06-22T02:59:59;5.40;;;3.33;;
80163;SDS011;70071;55.130;61.268;2023-06-22T03:02:30;5.65;;;3.05;;
80163;SDS011;70071;55.130;61.268;2023-06-22T03:04:56;6.43;;;3.17;;
80163;SDS011;70071;55.130;61.268;2023-06-22T03:07:23;5.32;;;3.35;;
80163;SDS011;70071;55.130;61.268;2023-06-22T03:09:49;5.55;;;3.55;;
80163;SDS011;70071;55.130;61.268;2023-06-22T03:12:15;6.32;;;3.10;;
80163;SDS011;70071;55.130;61.268;2023-06-22T03:14:41;3.80;;;2.25;;
80163;SDS011;70071;55.130;61.268;2023-06-22T03:17:07;4.93;;;2.40;;
80163;SDS011;70071;55.130;61.268;2023-06-22T03:19:33;4.32;;;2.40;;
80163;SDS011;70071;55.130;61.268;2023-06-22T03:21:59;5.13;;;2.75;;
80163;SDS011;70071;55.130;61.268;2023-06-22T03:24:26;5.25;;;2.95;;
80163;SDS011;70071;55.130;61.268;2023-06-22T03:26:53;4.47;;;2.08;;
80163;SDS011;70071;55.130;61.268;2023-06-22T03:29:20;4.68;;;2.70;;
80163;SDS011;70071;55.130;61.268;2023-06-22T03:31:46;4.40;;;3.05;;
80163;SDS011;70071;55.130;61.268;2023-06-22T03:34:11;4.50;;;2.65;;
80163;SDS011;70071;55.130;61.268;2023-06-22T03:36:37;5.18;;;3.00;;
80163;SDS011;70071;55.130;61.268;2023-06-22T03:39:03;5.20;;;3.20;;
80163;SDS011;70071;55.130;61.268;2023-06-22T03:41:29;5.40;;;3.47;;
80163;SDS011;70071;55.130;61.268;2023-06-22T03:43:58;5.32;;;2.80;;
80163;SDS011;70071;55.130;61.268;2023-06-22T03:48:54;2.55;;;1.52;;
80163;SDS011;70071;55.130;61.268;2023-06-22T03:51:45;3.97;;;2.40;;
80163;SDS011;70071;55.130;61.268;2023-06-22T03:54:11;3.97;;;2.40;;
80163;SDS011;70071;55.130;61.268;2023-06-22T03:56:37;3.45;;;2.30;;
80163;SDS011;70071;55.130;61.268;2023-06-22T04:01:29;3.60;;;2.03;;
80163;SDS011;70071;55.130;61.268;2023-06-22T04:03:55;3.38;;;2.10;;
80163;SDS011;70071;55.130;61.268;2023-06-22T04:06:25;4.03;;;2.42;;
80163;SDS011;70071;55.130;61.268;2023-06-22T04:08:51;3.60;;;2.25;;
80163;SDS011;70071;55.130;61.268;2023-06-22T04:11:17;4.25;;;2.20;;
80163;SDS011;70071;55.130;61.268;2023-06-22T04:13:44;2.95;;;2.05;;
80163;SDS011;70071;55.130;61.268;2023-06-22T04:16:10;4.95;;;2.60;;
80163;SDS011;70071;55.130;61.268;2023-06-22T04:18:37;4.45;;;2.90;;
80163;SDS011;70071;55.130;61.268;2023-06-22T04:21:03;6.13;;;2.17;;
80163;SDS011;70071;55.130;61.268;2023-06-22T04:23:30;4.35;;;2.90;;
80163;SDS011;70071;55.130;61.268;2023-06-22T04:25:55;3.13;;;2.10;;
80163;SDS011;70071;55.130;61.268;2023-06-22T04:28:22;3.88;;;2.67;;
80163;SDS011;70071;55.130;61.268;2023-06-22T04:30:48;6.13;;;2.83;;
80163;SDS011;70071;55.130;61.268;2023-06-22T04:33:17;4.90;;;2.75;;
80163;SDS011;70071;55.130;61.268;2023-06-22T04:35:46;4.22;;;3.00;;
80163;SDS011;70071;55.130;61.268;2023-06-22T04:38:12;5.03;;;3.13;;
80163;SDS011;70071;55.130;61.268;2023-06-22T04:40:39;6.85;;;3.90;;
80163;SDS011;70071;55.130;61.268;2023-06-22T04:43:06;4.97;;;2.97;;
80163;SDS011;70071;55.130;61.268;2023-06-22T04:45:32;4.43;;;2.58;;
80163;SDS011;70071;55.130;61.268;2023-06-22T04:47:59;4.97;;;3.20;;
80163;SDS011;70071;55.130;61.268;2023-06-22T04:50:25;4.35;;;2.70;;
80163;SDS011;70071;55.130;61.268;2023-06-22T04:52:51;4.55;;;2.85;;
80163;SDS011;70071;55.130;61.268;2023-06-22T04:55:17;4.32;;;2.08;;
80163;SDS011;70071;55.130;61.268;2023-06-22T04:57:46;3.58;;;2.33;;
80163;SDS011;70071;55.130;61.268;2023-06-22T05:00:17;3.88;;;2.45;;
80163;SDS011;70071;55.130;61.268;2023-06-22T05:02:45;4.10;;;2.28;;
80163;SDS011;70071;55.130;61.268;2023-06-22T05:05:12;4.97;;;2.47;;
80163;SDS011;70071;55.130;61.268;2023-06-22T05:07:39;3.85;;;2.53;;
80163;SDS011;70071;55.130;61.268;2023-06-22T05:10:10;3.63;;;2.40;;
80163;SDS011;70071;55.130;61.268;2023-06-22T05:12:38;2.30;;;1.33;;
80163;SDS011;70071;55.130;61.268;2023-06-22T05:15:05;2.97;;;2.10;;
80163;SDS011;70071;55.130;61.268;2023-06-22T05:17:33;3.40;;;2.00;;
80163;SDS011;70071;55.130;61.268;2023-06-22T05:20:00;3.00;;;2.28;;
80163;SDS011;70071;55.130;61.268;2023-06-22T05:22:30;3.22;;;2.03;;
80163;SDS011;70071;55.130;61.268;2023-06-22T05:24:56;4.05;;;2.35;;
80163;SDS011;70071;55.130;61.268;2023-06-22T05:27:21;4.80;;;2.58;;
80163;SDS011;70071;55.130;61.268;2023-06-22T05:29:48;5.07;;;2.20;;
80163;SDS011;70071;55.130;61.268;2023-06-22T05:32:13;4.28;;;2.40;;
80163;SDS011;70071;55.130;61.268;2023-06-22T05:34:40;4.90;;;2.78;;
80163;SDS011;70071;55.130;61.268;2023-06-22T05:37:06;4.13;;;2.67;;
80163;SDS011;70071;55.130;61.268;2023-06-22T05:39:34;3.28;;;2.28;;
80163;SDS011;70071;55.130;61.268;2023-06-22T05:42:04;4.53;;;2.67;;
80163;SDS011;70071;55.130;61.268;2023-06-22T05:44:31;3.60;;;2.70;;
80163;SDS011;70071;55.130;61.268;2023-06-22T05:46:57;4.38;;;3.00;;
80163;SDS011;70071;55.130;61.268;2023-06-22T05:49:23;3.83;;;2.45;;
80163;SDS011;70071;55.130;61.268;2023-06-22T05:51:49;3.92;;;2.58;;
80163;SDS011;70071;55.130;61.268;2023-06-22T05:54:15;4.32;;;2.67;;
80163;SDS011;70071;55.130;61.268;2023-06-22T05:56:43;3.95;;;2.90;;
80163;SDS011;70071;55.130;61.268;2023-06-22T05:59:09;3.67;;;2.15;;
80163;SDS011;70071;55.130;61.268;2023-06-22T06:01:35;3.30;;;2.63;;
80163;SDS011;70071;55.130;61.268;2023-06-22T06:04:02;3.78;;;2.15;;
80163;SDS011;70071;55.130;61.268;2023-06-22T06:06:29;3.47;;;2.03;;
80163;SDS011;70071;55.130;61.268;2023-06-22T06:08:55;3.05;;;2.25;;
80163;SDS011;70071;55.130;61.268;2023-06-22T06:11:21;4.05;;;2.40;;
80163;SDS011;70071;55.130;61.268;2023-06-22T06:13:48;3.72;;;2.33;;
80163;SDS011;70071;55.130;61.268;2023-06-22T06:16:14;3.53;;;2.20;;
80163;SDS011;70071;55.130;61.268;2023-06-22T06:18:42;4.60;;;2.33;;
80163;SDS011;70071;55.130;61.268;2023-06-22T06:21:07;4.40;;;2.63;;
80163;SDS011;70071;55.130;61.268;2023-06-22T06:23:33;8.02;;;3.00;;
80163;SDS011;70071;55.130;61.268;2023-06-22T06:25:59;3.75;;;2.00;;
80163;SDS011;70071;55.130;61.268;2023-06-22T06:28:26;3.03;;;2.10;;
80163;SDS011;70071;55.130;61.268;2023-06-22T06:30:52;2.33;;;1.70;;
80163;SDS011;70071;55.130;61.268;2023-06-22T06:33:18;2.85;;;1.73;;
80163;SDS011;70071;55.130;61.268;2023-06-22T06:35:46;3.45;;;2.17;;
80163;SDS011;70071;55.130;61.268;2023-06-22T06:38:12;3.13;;;2.03;;
80163;SDS011;70071;55.130;61.268;2023-06-22T06:40:38;3.63;;;1.85;;
80163;SDS011;70071;55.130;61.268;2023-06-22T06:43:03;3.30;;;1.95;;
80163;SDS011;70071;55.130;61.268;2023-06-22T06:45:29;3.83;;;1.85;;
80163;SDS011;70071;55.130;61.268;2023-06-22T06:47:58;2.70;;;1.70;;
80163;SDS011;70071;55.130;61.268;2023-06-22T06:50:24;2.55;;;2.00;;
80163;SDS011;70071;55.130;61.268;2023-06-22T06:52:49;3.03;;;2.30;;
80163;SDS011;70071;55.130;61.268;2023-06-22T06:55:15;3.90;;;2.08;;
80163;SDS011;70071;55.130;61.268;2023-06-22T06:57:42;3.10;;;2.00;;
80163;SDS011;70071;55.130;61.268;2023-06-22T07:00:12;3.08;;;1.95;;
80163;SDS011;70071;55.130;61.268;2023-06-22T07:02:39;2.85;;;1.85;;
80163;SDS011;70071;55.130;61.268;2023-06-22T07:05:07;2.30;;;1.75;;
80163;SDS011;70071;55.130;61.268;2023-06-22T07:07:33;2.90;;;2.50;;
80163;SDS011;70071;55.130;61.268;2023-06-22T07:10:00;2.80;;;2.30;;
80163;SDS011;70071;55.130;61.268;2023-06-22T07:12:26;3.53;;;2.10;;
80163;SDS011;70071;55.130;61.268;2023-06-22T07:14:52;2.78;;;2.20;;
80163;SDS011;70071;55.130;61.268;2023-06-22T07:17:19;3.00;;;1.90;;
80163;SDS011;70071;55.130;61.268;2023-06-22T07:22:10;2.72;;;2.03;;
80163;SDS011;70071;55.130;61.268;2023-06-22T07:24:36;4.68;;;2.00;;
80163;SDS011;70071;55.130;61.268;2023-06-22T07:27:05;2.85;;;2.20;;
80163;SDS011;70071;55.130;61.268;2023-06-22T07:29:33;3.22;;;2.63;;
80163;SDS011;70071;55.130;61.268;2023-06-22T07:31:59;3.95;;;2.20;;
80163;SDS011;70071;55.130;61.268;2023-06-22T07:34:26;3.13;;;1.95;;
80163;SDS011;70071;55.130;61.268;2023-06-22T07:36:52;3.80;;;1.85;;
80163;SDS011;70071;55.130;61.268;2023-06-22T07:39:17;2.90;;;2.13;;
80163;SDS011;70071;55.130;61.268;2023-06-22T07:41:43;3.50;;;2.15;;
80163;SDS011;70071;55.130;61.268;2023-06-22T07:44:09;2.63;;;2.13;;
80163;SDS011;70071;55.130;61.268;2023-06-22T07:46:35;3.53;;;2.70;;
80163;SDS011;70071;55.130;61.268;2023-06-22T07:49:01;3.22;;;1.90;;
80163;SDS011;70071;55.130;61.268;2023-06-22T07:51:27;2.45;;;1.73;;
80163;SDS011;70071;55.130;61.268;2023-06-22T07:53:53;2.70;;;2.42;;
80163;SDS011;70071;55.130;61.268;2023-06-22T07:56:20;3.40;;;2.55;;
80163;SDS011;70071;55.130;61.268;2023-06-22T07:58:46;3.83;;;2.22;;
80163;SDS011;70071;55.130;61.268;2023-06-22T08:01:16;3.85;;;2.35;;
80163;SDS011;70071;55.130;61.268;2023-06-22T08:03:42;3.25;;;2.65;;
80163;SDS011;70071;55.130;61.268;2023-06-22T08:06:08;2.50;;;1.92;;
80163;SDS011;70071;55.130;61.268;2023-06-22T08:08:38;3.30;;;2.70;;
80163;SDS011;70071;55.130;61.268;2023-06-22T08:11:08;3.30;;;2.40;;
80163;SDS011;70071;55.130;61.268;2023-06-22T08:13:38;3.42;;;2.72;;
80163;SDS011;70071;55.130;61.268;2023-06-22T08:16:04;3.35;;;2.70;;
80163;SDS011;70071;55.130;61.268;2023-06-22T08:18:32;3.30;;;2.90;;
80163;SDS011;70071;55.130;61.268;2023-06-22T08:20:58;3.20;;;2.30;;
80163;SDS011;70071;55.130;61.268;2023-06-22T08:23:24;3.03;;;2.72;;
80163;SDS011;70071;55.130;61.268;2023-06-22T08:25:50;3.38;;;2.83;;
80163;SDS011;70071;55.130;61.268;2023-06-22T08:28:16;3.10;;;1.92;;
80163;SDS011;70071;55.130;61.268;2023-06-22T08:30:42;4.03;;;3.10;;
80163;SDS011;70071;55.130;61.268;2023-06-22T08:33:08;3.50;;;2.90;;
80163;SDS011;70071;55.130;61.268;2023-06-22T08:35:34;3.40;;;2.85;;
80163;SDS011;70071;55.130;61.268;2023-06-22T08:38:00;4.30;;;2.35;;
80163;SDS011;70071;55.130;61.268;2023-06-22T08:40:27;3.65;;;2.65;;
80163;SDS011;70071;55.130;61.268;2023-06-22T08:42:54;5.07;;;2.50;;
80163;SDS011;70071;55.130;61.268;2023-06-22T08:45:20;3.95;;;2.78;;
80163;SDS011;70071;55.130;61.268;2023-06-22T08:47:46;3.40;;;2.90;;
80163;SDS011;70071;55.130;61.268;2023-06-22T08:50:12;3.40;;;2.85;;
80163;SDS011;70071;55.130;61.268;2023-06-22T08:52:39;4.30;;;3.30;;
80163;SDS011;70071;55.130;61.268;2023-06-22T09:06:47;4.38;;;3.13;;
80163;SDS011;70071;55.130;61.268;2023-06-22T09:09:28;3.90;;;3.25;;
80163;SDS011;70071;55.130;61.268;2023-06-22T09:37:41;3.10;;;2.40;;
80163;SDS011;70071;55.130;61.268;2023-06-22T09:41:11;3.25;;;2.67;;
80163;SDS011;70071;55.130;61.268;2023-06-22T09:55:48;3.58;;;3.10;;
80163;SDS011;70071;55.130;61.268;2023-06-22T09:58:14;3.72;;;2.83;;
80163;SDS011;70071;55.130;61.268;2023-06-22T10:00:40;4.40;;;3.25;;
80163;SDS011;70071;55.130;61.268;2023-06-22T10:03:07;4.88;;;3.28;;
80163;SDS011;70071;55.130;61.268;2023-06-22T10:05:34;3.67;;;3.15;;
80163;SDS011;70071;55.130;61.268;2023-06-22T10:08:00;5.20;;;3.30;;
80163;SDS011;70071;55.130;61.268;2023-06-22T10:10:26;3.47;;;3.17;;
80163;SDS011;70071;55.130;61.268;2023-06-22T10:12:56;5.82;;;3.33;;
80163;SDS011;70071;55.130;61.268;2023-06-22T10:15:23;3.33;;;2.90;;
80163;SDS011;70071;55.130;61.268;2023-06-22T10:17:49;3.60;;;2.85;;
80163;SDS011;70071;55.130;61.268;2023-06-22T10:20:15;3.55;;;3.03;;
80163;SDS011;70071;55.130;61.268;2023-06-22T10:22:44;4.85;;;3.17;;
80163;SDS011;70071;55.130;61.268;2023-06-22T10:25:10;3.55;;;2.95;;
80163;SDS011;70071;55.130;61.268;2023-06-22T10:27:37;3.75;;;3.30;;
80163;SDS011;70071;55.130;61.268;2023-06-22T10:30:07;3.97;;;3.20;;
80163;SDS011;70071;55.130;61.268;2023-06-22T10:32:34;3.25;;;2.85;;
80163;SDS011;70071;55.130;61.268;2023-06-22T10:35:00;3.70;;;3.13;;
80163;SDS011;70071;55.130;61.268;2023-06-22T10:37:26;3.38;;;2.42;;
80163;SDS011;70071;55.130;61.268;2023-06-22T10:39:51;3.28;;;2.85;;
80163;SDS011;70071;55.130;61.268;2023-06-22T10:42:18;3.97;;;3.38;;
80163;SDS011;70071;55.130;61.268;2023-06-22T10:44:43;4.07;;;2.80;;
80163;SDS011;70071;55.130;61.268;2023-06-22T10:47:10;3.65;;;3.35;;
80163;SDS011;70071;55.130;61.268;2023-06-22T10:49:39;3.85;;;3.20;;
80163;SDS011;70071;55.130;61.268;2023-06-22T10:52:06;3.95;;;3.28;;
80163;SDS011;70071;55.130;61.268;2023-06-22T10:54:35;3.03;;;2.72;;
80163;SDS011;70071;55.130;61.268;2023-06-22T10:57:02;4.07;;;3.22;;
80163;SDS011;70071;55.130;61.268;2023-06-22T10:59:29;3.58;;;3.28;;
80163;SDS011;70071;55.130;61.268;2023-06-22T11:01:55;5.18;;;3.30;;
80163;SDS011;70071;55.130;61.268;2023-06-22T11:04:23;4.00;;;3.13;;
80163;SDS011;70071;55.130;61.268;2023-06-22T11:06:49;4.15;;;3.75;;
80163;SDS011;70071;55.130;61.268;2023-06-22T11:11:49;3.38;;;3.08;;
80163;SDS011;70071;55.130;61.268;2023-06-22T11:14:18;5.22;;;4.70;;
80163;SDS011;70071;55.130;61.268;2023-06-22T11:16:45;3.70;;;3.05;;
80163;SDS011;70071;55.130;61.268;2023-06-22T11:19:12;4.05;;;2.70;;
80163;SDS011;70071;55.130;61.268;2023-06-22T11:21:37;3.63;;;2.42;;
80163;SDS011;70071;55.130;61.268;2023-06-22T11:24:13;3.30;;;3.00;;
80163;SDS011;70071;55.130;61.268;2023-06-22T11:26:42;4.80;;;2.95;;
80163;SDS011;70071;55.130;61.268;2023-06-22T11:29:13;4.22;;;3.40;;
80163;SDS011;70071;55.130;61.268;2023-06-22T11:31:50;3.78;;;3.25;;
80163;SDS011;70071;55.130;61.268;2023-06-22T11:41:49;5.32;;;3.88;;
80163;SDS011;70071;55.130;61.268;2023-06-22T11:56:11;3.92;;;3.20;;
80163;SDS011;70071;55.130;61.268;2023-06-22T11:59:07;4.03;;;3.63;;
80163;SDS011;70071;55.130;61.268;2023-06-22T12:07:33;4.72;;;3.88;;
80163;SDS011;70071;55.130;61.268;2023-06-22T12:10:34;4.45;;;3.83;;
80163;SDS011;70071;55.130;61.268;2023-06-22T12:13:00;5.55;;;4.30;;
80163;SDS011;70071;55.130;61.268;2023-06-22T12:15:51;4.57;;;3.83;;
80163;SDS011;70071;55.130;61.268;2023-06-22T12:18:39;4.82;;;2.95;;
80163;SDS011;70071;55.130;61.268;2023-06-22T12:23:34;5.32;;;4.30;;
80163;SDS011;70071;55.130;61.268;2023-06-22T12:26:05;5.43;;;4.15;;
80163;SDS011;70071;55.130;61.268;2023-06-22T12:30:58;6.13;;;5.00;;
80163;SDS011;70071;55.130;61.268;2023-06-22T12:33:29;5.28;;;4.38;;
80163;SDS011;70071;55.130;61.268;2023-06-22T12:36:03;6.47;;;4.10;;
80163;SDS011;70071;55.130;61.268;2023-06-22T12:38:37;4.72;;;4.05;;
80163;SDS011;70071;55.130;61.268;2023-06-22T12:41:15;4.20;;;3.80;;
80163;SDS011;70071;55.130;61.268;2023-06-22T12:44:21;4.95;;;3.80;;
80163;SDS011;70071;55.130;61.268;2023-06-22T12:47:14;5.65;;;3.90;;
80163;SDS011;70071;55.130;61.268;2023-06-22T12:49:40;7.30;;;3.83;;
80163;SDS011;70071;55.130;61.268;2023-06-22T12:52:12;5.20;;;4.13;;
80163;SDS011;70071;55.130;61.268;2023-06-22T12:54:48;4.60;;;3.70;;
80163;SDS011;70071;55.130;61.268;2023-06-22T12:58:21;5.93;;;4.28;;
80163;SDS011;70071;55.130;61.268;2023-06-22T13:01:13;6.25;;;5.32;;
80163;SDS011;70071;55.130;61.268;2023-06-22T13:03:50;6.40;;;5.35;;
80163;SDS011;70071;55.130;61.268;2023-06-22T13:07:12;6.00;;;5.07;;
80163;SDS011;70071;55.130;61.268;2023-06-22T13:10:04;5.75;;;4.95;;
80163;SDS011;70071;55.130;61.268;2023-06-22T13:12:50;5.47;;;4.30;;
80163;SDS011;70071;55.130;61.268;2023-06-22T13:15:54;5.93;;;4.78;;
80163;SDS011;70071;55.130;61.268;2023-06-22T13:18:45;5.38;;;4.40;;
80163;SDS011;70071;55.130;61.268;2023-06-22T13:21:37;5.38;;;4.40;;
80163;SDS011;70071;55.130;61.268;2023-06-22T13:24:06;5.38;;;4.15;;
80163;SDS011;70071;55.130;61.268;2023-06-22T13:26:32;5.05;;;4.55;;
80163;SDS011;70071;55.130;61.268;2023-06-22T13:28:58;5.55;;;4.18;;
80163;SDS011;70071;55.130;61.268;2023-06-22T13:31:28;6.57;;;3.95;;
80163;SDS011;70071;55.130;61.268;2023-06-22T13:34:08;7.65;;;4.30;;
80163;SDS011;70071;55.130;61.268;2023-06-22T13:36:54;5.45;;;3.95;;
80163;SDS011;70071;55.130;61.268;2023-06-22T13:39:19;5.80;;;4.45;;
80163;SDS011;70071;55.130;61.268;2023-06-22T13:42:03;5.95;;;3.92;;
80163;SDS011;70071;55.130;61.268;2023-06-22T13:44:42;4.15;;;3.75;;
80163;SDS011;70071;55.130;61.268;2023-06-22T13:49:34;4.97;;;3.67;;
80163;SDS011;70071;55.130;61.268;2023-06-22T13:52:00;5.70;;;4.25;;
80163;SDS011;70071;55.130;61.268;2023-06-22T13:54:28;7.03;;;4.20;;
80163;SDS011;70071;55.130;61.268;2023-06-22T13:56:54;4.05;;;3.63;;
80163;SDS011;70071;55.130;61.268;2023-06-22T13:59:20;4.03;;;3.33;;
80163;SDS011;70071;55.130;61.268;2023-06-22T14:01:47;4.85;;;3.88;;
80163;SDS011;70071;55.130;61.268;2023-06-22T14:04:14;4.57;;;3.70;;
80163;SDS011;70071;55.130;61.268;2023-06-22T14:06:40;4.90;;;4.20;;
80163;SDS011;70071;55.130;61.268;2023-06-22T14:09:06;4.43;;;3.75;;
80163;SDS011;70071;55.130;61.268;2023-06-22T14:11:32;5.53;;;4.50;;
80163;SDS011;70071;55.130;61.268;2023-06-22T14:13:59;5.50;;;4.15;;
80163;SDS011;70071;55.130;61.268;2023-06-22T14:16:28;5.38;;;3.95;;
80163;SDS011;70071;55.130;61.268;2023-06-22T14:18:54;4.40;;;3.95;;
80163;SDS011;70071;55.130;61.268;2023-06-22T14:21:20;5.97;;;4.18;;
80163;SDS011;70071;55.130;61.268;2023-06-22T14:23:46;4.65;;;4.00;;
80163;SDS011;70071;55.130;61.268;2023-06-22T14:26:18;3.70;;;3.30;;
80163;SDS011;70071;55.130;61.268;2023-06-22T14:31:15;5.68;;;4.30;;
80163;SDS011;70071;55.130;61.268;2023-06-22T14:33:48;4.82;;;4.20;;
80163;SDS011;70071;55.130;61.268;2023-06-22T14:36:15;4.63;;;4.03;;
80163;SDS011;70071;55.130;61.268;2023-06-22T14:38:45;6.55;;;4.25;;
80163;SDS011;70071;55.130;61.268;2023-06-22T14:41:14;5.53;;;4.68;;
80163;SDS011;70071;55.130;61.268;2023-06-22T14:43:45;4.80;;;4.10;;
80163;SDS011;70071;55.130;61.268;2023-06-22T14:46:12;4.38;;;3.70;;
80163;SDS011;70071;55.130;61.268;2023-06-22T14:48:39;5.95;;;4.53;;
80163;SDS011;70071;55.130;61.268;2023-06-22T14:51:05;10.52;;;6.78;;
80163;SDS011;70071;55.130;61.268;2023-06-22T14:53:31;6.43;;;5.60;;
80163;SDS011;70071;55.130;61.268;2023-06-22T14:55:57;5.25;;;4.75;;
80163;SDS011;70071;55.130;61.268;2023-06-22T14:58:25;4.80;;;4.00;;
80163;SDS011;70071;55.130;61.268;2023-06-22T15:00:51;5.88;;;5.15;;
80163;SDS011;70071;55.130;61.268;2023-06-22T15:03:16;5.18;;;4.68;;
80163;SDS011;70071;55.130;61.268;2023-06-22T15:05:47;6.95;;;4.88;;
80163;SDS011;70071;55.130;61.268;2023-06-22T15:10:38;7.40;;;5.68;;
80163;SDS011;70071;55.130;61.268;2023-06-22T15:13:04;5.82;;;5.22;;
80163;SDS011;70071;55.130;61.268;2023-06-22T15:15:30;6.88;;;5.45;;
80163;SDS011;70071;55.130;61.268;2023-06-22T15:17:56;6.43;;;5.38;;
80163;SDS011;70071;55.130;61.268;2023-06-22T15:20:22;6.68;;;5.35;;
80163;SDS011;70071;55.130;61.268;2023-06-22T15:22:48;8.77;;;5.53;;
80163;SDS011;70071;55.130;61.268;2023-06-22T15:25:14;7.85;;;5.80;;
80163;SDS011;70071;55.130;61.268;2023-06-22T15:27:39;9.15;;;5.60;;
80163;SDS011;70071;55.130;61.268;2023-06-22T15:30:05;5.43;;;4.90;;
80163;SDS011;70071;55.130;61.268;2023-06-22T15:32:32;5.15;;;4.65;;
80163;SDS011;70071;55.130;61.268;2023-06-22T15:34:58;6.38;;;5.63;;
80163;SDS011;70071;55.130;61.268;2023-06-22T15:37:24;7.13;;;6.35;;
80163;SDS011;70071;55.130;61.268;2023-06-22T15:39:50;6.82;;;6.00;;
80163;SDS011;70071;55.130;61.268;2023-06-22T15:42:16;8.52;;;7.15;;
80163;SDS011;70071;55.130;61.268;2023-06-22T15:44:42;10.18;;;8.20;;
80163;SDS011;70071;55.130;61.268;2023-06-22T15:47:08;9.27;;;8.07;;
80163;SDS011;70071;55.130;61.268;2023-06-22T15:49:36;12.93;;;9.27;;
80163;SDS011;70071;55.130;61.268;2023-06-22T15:52:03;10.23;;;8.10;;
80163;SDS011;70071;55.130;61.268;2023-06-22T15:54:38;10.40;;;7.47;;
80163;SDS011;70071;55.130;61.268;2023-06-22T15:57:06;8.15;;;6.25;;
80163;SDS011;70071;55.130;61.268;2023-06-22T15:59:32;9.38;;;6.07;;
80163;SDS011;70071;55.130;61.268;2023-06-22T16:01:58;6.57;;;5.72;;
80163;SDS011;70071;55.130;61.268;2023-06-22T16:04:24;6.78;;;5.63;;
80163;SDS011;70071;55.130;61.268;2023-06-22T16:06:50;6.95;;;4.90;;
80163;SDS011;70071;55.130;61.268;2023-06-22T16:09:16;7.45;;;5.43;;
80163;SDS011;70071;55.130;61.268;2023-06-22T16:11:43;9.20;;;5.05;;
80163;SDS011;70071;55.130;61.268;2023-06-22T16:14:09;9.40;;;6.65;;
80163;SDS011;70071;55.130;61.268;2023-06-22T16:16:35;8.82;;;7.10;;
80163;SDS011;70071;55.130;61.268;2023-06-22T16:19:01;9.55;;;6.82;;
80163;SDS011;70071;55.130;61.268;2023-06-22T16:21:27;7.50;;;6.53;;
80163;SDS011;70071;55.130;61.268;2023-06-22T16:23:53;8.38;;;5.63;;
80163;SDS011;70071;55.130;61.268;2023-06-22T16:26:19;10.38;;;5.93;;
80163;SDS011;70071;55.130;61.268;2023-06-22T16:28:45;6.57;;;5.05;;
80163;SDS011;70071;55.130;61.268;2023-06-22T16:31:11;10.80;;;5.80;;
80163;SDS011;70071;55.130;61.268;2023-06-22T16:33:37;7.10;;;5.32;;
80163;SDS011;70071;55.130;61.268;2023-06-22T16:36:03;6.72;;;5.15;;
80163;SDS011;70071;55.130;61.268;2023-06-22T16:38:29;6.65;;;5.70;;
80163;SDS011;70071;55.130;61.268;2023-06-22T16:40:55;9.48;;;7.97;;
80163;SDS011;70071;55.130;61.268;2023-06-22T16:43:21;8.10;;;6.47;;
80163;SDS011;70071;55.130;61.268;2023-06-22T16:45:47;7.68;;;5.78;;
80163;SDS011;70071;55.130;61.268;2023-06-22T16:48:13;6.82;;;5.03;;